createdAt,value
2017-11-29T00:03:00.110Z,4.90
2017-11-29T00:06:01.601Z,4.60
2017-11-29T00:09:03.125Z,4.80
2017-11-29T00:12:04.603Z,4.70
2017-11-29T00:18:14.413Z,4.60
2017-11-29T00:21:15.817Z,4.60
2017-11-29T00:24:17.312Z,4.50
2017-11-29T00:27:18.797Z,4.50
2017-11-29T00:30:20.371Z,4.50
2017-11-29T00:33:22.525Z,4.60
2017-11-29T00:36:24.016Z,4.50
2017-11-29T00:39:25.545Z,4.50
2017-11-29T00:42:26.978Z,4.60
2017-11-29T00:45:28.496Z,4.70
2017-11-29T00:48:30.694Z,4.70
2017-11-29T00:51:32.189Z,4.60
2017-11-29T00:54:33.603Z,4.60
2017-11-29T00:57:35.124Z,4.60
2017-11-29T01:00:37.696Z,4.50
2017-11-29T01:03:39.860Z,4.50
2017-11-29T01:06:42.051Z,4.50
2017-11-29T01:09:44.230Z,4.60
2017-11-29T01:12:46.436Z,4.60
2017-11-29T01:15:47.906Z,4.60
2017-11-29T01:18:49.357Z,4.50
2017-11-29T01:21:50.792Z,4.70
2017-11-29T01:24:52.265Z,4.70
2017-11-29T01:27:53.740Z,4.20
2017-11-29T01:30:55.885Z,4.30
2017-11-29T01:33:57.334Z,4.30
2017-11-29T01:36:58.768Z,4.50
2017-11-29T01:40:00.192Z,4.50
2017-11-29T01:43:01.707Z,4.60
2017-11-29T01:46:03.174Z,4.40
2017-11-29T01:49:05.423Z,4.10
2017-11-29T01:52:06.801Z,3.70
2017-11-29T01:55:09.021Z,4.20
2017-11-29T01:58:10.497Z,4.10
2017-11-29T02:01:11.977Z,4.20
2017-11-29T02:04:14.117Z,4.40
2017-11-29T02:07:15.573Z,4.10
2017-11-29T02:10:17.059Z,4.40
2017-11-29T02:13:19.171Z,4.30
2017-11-29T02:16:20.613Z,4.30
2017-11-29T02:19:22.032Z,4.30
2017-11-29T02:22:24.207Z,4.40
2017-11-29T02:25:25.638Z,4.40
2017-11-29T02:28:27.132Z,4.50
2017-11-29T02:31:28.597Z,4.40
2017-11-29T02:34:30.071Z,4.40
2017-11-29T02:37:31.547Z,4.40
2017-11-29T02:40:51.473Z,4.50
2017-11-29T02:43:52.972Z,4.50
2017-11-29T02:46:54.431Z,4.50
2017-11-29T02:49:55.926Z,4.60
2017-11-29T02:52:57.418Z,4.50
2017-11-29T02:55:58.852Z,4.40
2017-11-29T02:59:00.536Z,4.20
2017-11-29T03:02:01.959Z,4.30
2017-11-29T03:05:03.398Z,4.60
2017-11-29T03:08:04.815Z,4.50
2017-11-29T03:11:06.969Z,4.60
2017-11-29T03:14:08.407Z,4.40
2017-11-29T03:17:09.842Z,4.60
2017-11-29T03:20:11.277Z,4.60
2017-11-29T03:23:12.662Z,4.70
2017-11-29T03:26:14.121Z,4.70
2017-11-29T03:29:15.531Z,4.50
2017-11-29T03:32:16.947Z,4.80
2017-11-29T03:35:19.151Z,4.80
2017-11-29T03:38:20.545Z,4.70
2017-11-29T03:41:21.914Z,5.10
2017-11-29T03:44:24.073Z,4.70
2017-11-29T03:47:25.506Z,4.70
2017-11-29T03:50:26.911Z,4.70
2017-11-29T03:53:28.328Z,4.60
2017-11-29T03:56:29.705Z,4.70
2017-11-29T03:59:31.913Z,4.60
2017-11-29T04:02:33.366Z,4.60
2017-11-29T04:05:34.755Z,4.40
2017-11-29T04:08:36.302Z,4.40
2017-11-29T04:11:37.711Z,4.70
2017-11-29T04:14:39.213Z,4.60
2017-11-29T04:17:40.629Z,4.70
2017-11-29T04:20:42.098Z,4.70
2017-11-29T04:23:43.499Z,4.60
2017-11-29T04:26:45.667Z,4.60
2017-11-29T04:29:47.828Z,4.50
2017-11-29T04:32:49.953Z,4.50
2017-11-29T04:35:51.386Z,4.20
2017-11-29T04:38:52.752Z,4.50
2017-11-29T04:41:54.214Z,4.60
2017-11-29T04:44:55.597Z,4.70
2017-11-29T04:47:57.716Z,4.60
2017-11-29T04:50:59.177Z,4.50
2017-11-29T04:54:00.601Z,4.30
2017-11-29T04:57:02.132Z,4.40
2017-11-29T05:00:04.329Z,4.50
2017-11-29T05:03:05.812Z,4.50
2017-11-29T05:06:07.321Z,4.40
2017-11-29T05:09:09.605Z,4.40
2017-11-29T05:12:11.089Z,4.10
2017-11-29T05:15:12.555Z,4.40
2017-11-29T05:18:14.033Z,4.30
2017-11-29T05:21:16.227Z,4.40
2017-11-29T05:24:17.708Z,4.40
2017-11-29T05:27:19.143Z,4.20
2017-11-29T05:30:20.633Z,4.10
2017-11-29T05:33:22.152Z,3.90
2017-11-29T05:36:23.579Z,4.00
2017-11-29T05:39:25.014Z,4.00
2017-11-29T05:42:27.184Z,3.90
2017-11-29T05:45:28.650Z,3.90
2017-11-29T05:48:30.818Z,4.10
2017-11-29T05:51:32.986Z,4.10
2017-11-29T05:54:35.205Z,4.00
2017-11-29T05:57:36.744Z,4.00
2017-11-29T06:00:38.215Z,3.90
2017-11-29T06:03:39.677Z,3.80
2017-11-29T06:06:41.815Z,3.90
2017-11-29T06:09:43.230Z,3.50
2017-11-29T06:12:45.424Z,3.80
2017-11-29T06:15:46.842Z,3.60
2017-11-29T06:18:49.030Z,3.80
2017-11-29T06:21:51.233Z,3.70
2017-11-29T06:24:52.706Z,3.80
2017-11-29T06:27:54.146Z,3.60
2017-11-29T06:30:55.527Z,3.80
2017-11-29T06:33:57.094Z,3.80
2017-11-29T06:36:58.464Z,3.90
2017-11-29T06:40:00.515Z,4.30
2017-11-29T06:43:01.797Z,4.30
2017-11-29T06:46:03.136Z,4.10
2017-11-29T06:49:05.179Z,4.00
2017-11-29T06:52:06.464Z,4.00
2017-11-29T06:55:07.781Z,3.90
2017-11-29T06:58:09.114Z,4.00
2017-11-29T07:01:10.450Z,4.00
2017-11-29T07:04:11.808Z,4.00
2017-11-29T07:07:13.443Z,4.10
2017-11-29T07:10:14.744Z,4.60
2017-11-29T07:13:16.770Z,5.50
2017-11-29T07:16:18.050Z,5.50
2017-11-29T07:19:19.358Z,4.80
2017-11-29T07:22:20.701Z,4.60
2017-11-29T07:25:22.022Z,4.40
2017-11-29T07:28:24.128Z,4.20
2017-11-29T07:31:25.430Z,4.20
2017-11-29T07:34:27.496Z,4.20
2017-11-29T07:37:29.549Z,4.20
2017-11-29T07:40:30.849Z,4.20
2017-11-29T07:43:32.173Z,4.10
2017-11-29T07:46:33.578Z,4.20
2017-11-29T07:49:34.984Z,4.10
2017-11-29T07:52:36.312Z,4.10
2017-11-29T07:55:38.402Z,4.20
2017-11-29T07:58:40.255Z,4.10
2017-11-29T08:01:41.648Z,4.20
2017-11-29T08:04:42.917Z,4.20
2017-11-29T08:07:44.233Z,4.20
2017-11-29T08:10:45.612Z,4.20
2017-11-29T08:13:47.438Z,4.10
2017-11-29T08:16:48.844Z,3.90
2017-11-29T08:19:50.916Z,4.50
2017-11-29T08:22:53.013Z,4.80
2017-11-29T08:25:54.345Z,4.80
2017-11-29T08:28:55.790Z,4.60
2017-11-29T08:31:57.914Z,4.50
2017-11-29T08:34:59.468Z,4.50
2017-11-29T08:38:00.905Z,4.70
2017-11-29T08:41:02.337Z,4.60
2017-11-29T08:44:03.702Z,4.60
2017-11-29T08:47:05.158Z,4.60
2017-11-29T08:50:06.510Z,4.60
2017-11-29T08:53:07.924Z,4.60
2017-11-29T08:56:10.049Z,4.80
2017-11-29T08:59:11.431Z,4.80
2017-11-29T09:02:13.521Z,4.90
2017-11-29T09:05:14.950Z,4.90
2017-11-29T09:08:17.028Z,4.90
2017-11-29T09:11:19.148Z,4.90
2017-11-29T09:14:20.611Z,4.90
2017-11-29T09:17:21.997Z,5.00
2017-11-29T09:20:24.103Z,4.90
2017-11-29T09:23:25.537Z,4.90
2017-11-29T09:26:26.894Z,5.00
2017-11-29T09:29:28.269Z,4.90
2017-11-29T09:32:29.645Z,4.90
2017-11-29T09:35:31.114Z,4.90
2017-11-29T09:38:33.271Z,4.90
2017-11-29T09:41:34.706Z,4.80
2017-11-29T09:44:36.877Z,4.90
2017-11-29T09:47:38.473Z,4.90
2017-11-29T09:50:40.602Z,4.90
2017-11-29T09:53:41.981Z,4.90
2017-11-29T09:56:44.118Z,4.90
2017-11-29T09:59:45.556Z,4.90
2017-11-29T10:02:54.140Z,4.90
2017-11-29T10:05:56.248Z,4.90
2017-11-29T10:08:57.620Z,4.90
2017-11-29T10:11:58.960Z,5.00
2017-11-29T10:15:00.314Z,4.80
2017-11-29T10:18:01.701Z,4.90
2017-11-29T10:21:03.808Z,5.00
2017-11-29T10:24:05.169Z,5.00
2017-11-29T10:27:06.490Z,4.90
2017-11-29T10:30:07.880Z,4.90
2017-11-29T10:33:09.246Z,5.00
2017-11-29T10:36:10.620Z,5.00
2017-11-29T10:39:12.701Z,5.10
2017-11-29T10:42:14.130Z,5.10
2017-11-29T10:45:16.272Z,5.00
2017-11-29T10:48:17.602Z,5.00
2017-11-29T10:51:18.948Z,5.10
2017-11-29T10:54:20.253Z,5.10
2017-11-29T10:57:22.381Z,5.10
2017-11-29T11:00:24.561Z,5.00
2017-11-29T11:03:25.914Z,5.10
2017-11-29T11:06:27.274Z,5.00
2017-11-29T11:09:28.670Z,5.10
2017-11-29T11:12:30.053Z,5.10
2017-11-29T11:15:31.393Z,5.10
2017-11-29T11:18:32.799Z,5.20
2017-11-29T11:21:34.933Z,4.90
2017-11-29T11:24:36.375Z,4.90
2017-11-29T11:27:37.762Z,4.80
2017-11-29T11:30:39.890Z,5.00
2017-11-29T11:33:41.318Z,4.50
2017-11-29T11:36:42.692Z,5.00
2017-11-29T11:39:44.037Z,5.00
2017-11-29T11:42:45.546Z,4.90
2017-11-29T11:45:47.669Z,5.00
2017-11-29T11:48:49.050Z,5.00
2017-11-29T11:51:51.139Z,5.10
2017-11-29T11:54:52.620Z,5.10
2017-11-29T11:57:54.057Z,5.20
2017-11-29T12:00:55.621Z,5.20
2017-11-29T12:03:57.085Z,5.20
2017-11-29T12:06:58.553Z,5.30
2017-11-29T12:10:00.009Z,5.30
2017-11-29T12:13:01.398Z,5.20
2017-11-29T12:16:03.561Z,5.80
2017-11-29T12:19:05.017Z,5.80
2017-11-29T12:22:07.137Z,5.60
2017-11-29T12:25:08.513Z,5.60
2017-11-29T12:28:09.999Z,5.40
2017-11-29T12:31:11.510Z,5.40
2017-11-29T12:34:12.949Z,5.50
2017-11-29T12:37:14.396Z,5.40
2017-11-29T12:40:15.781Z,5.60
2017-11-29T12:43:17.155Z,5.30
2017-11-29T12:46:19.304Z,5.30
2017-11-29T12:49:39.286Z,5.30
2017-11-29T12:52:40.687Z,5.20
2017-11-29T12:55:42.149Z,5.40
2017-11-29T12:58:43.561Z,5.50
2017-11-29T13:01:45.684Z,5.40
2017-11-29T13:04:47.046Z,5.40
2017-11-29T13:07:49.179Z,5.50
2017-11-29T13:10:50.688Z,5.40
2017-11-29T13:13:52.151Z,5.70
2017-11-29T13:16:54.250Z,5.70
2017-11-29T13:19:55.641Z,5.70
2017-11-29T13:22:57.001Z,5.50
2017-11-29T13:25:58.405Z,5.50
2017-11-29T13:28:59.815Z,5.40
2017-11-29T13:32:01.195Z,5.20
2017-11-29T13:35:02.549Z,5.10
2017-11-29T13:38:03.908Z,5.30
2017-11-29T13:41:05.590Z,5.20
2017-11-29T13:44:06.934Z,5.00
2017-11-29T13:47:08.404Z,5.10
2017-11-29T13:50:09.764Z,5.00
2017-11-29T13:53:11.141Z,5.00
2017-11-29T13:56:13.242Z,4.90
2017-11-29T13:59:14.695Z,5.10
2017-11-29T14:02:16.035Z,4.90
2017-11-29T14:05:18.320Z,4.90
2017-11-29T14:08:19.699Z,4.90
2017-11-29T14:11:21.082Z,4.70
2017-11-29T14:14:23.150Z,4.70
2017-11-29T14:17:25.175Z,4.70
2017-11-29T14:20:26.518Z,4.70
2017-11-29T14:23:27.944Z,4.60
2017-11-29T14:26:29.224Z,4.70
2017-11-29T14:29:30.580Z,4.60
2017-11-29T14:32:31.934Z,4.60
2017-11-29T14:35:33.279Z,4.80
2017-11-29T14:38:34.634Z,4.60
2017-11-29T14:41:36.037Z,4.60
2017-11-29T14:44:38.098Z,4.50
2017-11-29T14:47:47.637Z,4.50
2017-11-29T14:50:49.730Z,4.50
2017-11-29T14:53:58.071Z,4.50
2017-11-29T14:56:59.423Z,4.40
2017-11-29T15:00:00.746Z,4.30
2017-11-29T15:03:02.125Z,4.40
2017-11-29T15:06:03.396Z,4.40
2017-11-29T15:09:04.706Z,4.30
2017-11-29T15:12:06.020Z,4.40
2017-11-29T15:15:08.093Z,4.40
2017-11-29T15:18:09.420Z,4.40
2017-11-29T15:21:10.741Z,4.30
2017-11-29T15:24:12.116Z,4.30
2017-11-29T15:27:13.460Z,4.20
2017-11-29T15:30:14.837Z,4.20
2017-11-29T15:33:16.939Z,4.10
2017-11-29T15:36:18.300Z,4.20
2017-11-29T15:39:19.644Z,4.10
2017-11-29T15:42:21.039Z,4.00
2017-11-29T15:45:23.185Z,3.90
2017-11-29T15:48:24.568Z,3.90
2017-11-29T15:51:26.658Z,3.90
2017-11-29T15:54:27.988Z,3.90
2017-11-29T15:57:29.333Z,3.90
2017-11-29T16:00:31.421Z,3.90
2017-11-29T16:03:32.813Z,3.90
2017-11-29T16:06:34.140Z,3.90
2017-11-29T16:09:35.517Z,3.80
2017-11-29T16:12:37.664Z,3.70
2017-11-29T16:15:38.986Z,3.70
2017-11-29T16:18:40.360Z,3.60
2017-11-29T16:21:41.685Z,3.60
2017-11-29T16:24:50.817Z,3.70
2017-11-29T16:27:53.041Z,3.60
2017-11-29T16:30:54.429Z,3.60
2017-11-29T16:33:56.543Z,3.60
2017-11-29T16:36:57.879Z,3.60
2017-11-29T16:39:59.233Z,3.50
2017-11-29T16:43:00.586Z,3.50
2017-11-29T16:46:01.940Z,3.40
2017-11-29T16:49:03.267Z,3.40
2017-11-29T16:52:04.627Z,3.70
2017-11-29T16:55:05.961Z,3.60
2017-11-29T16:58:07.312Z,3.30
2017-11-29T17:01:08.654Z,3.40
2017-11-29T17:04:10.755Z,3.50
2017-11-29T17:07:12.138Z,3.40
2017-11-29T17:10:13.484Z,3.40
2017-11-29T17:13:14.846Z,3.50
2017-11-29T17:16:16.211Z,3.50
2017-11-29T17:19:18.317Z,3.30
2017-11-29T17:22:19.709Z,3.30
2017-11-29T17:25:21.075Z,3.40
2017-11-29T17:28:22.395Z,3.40
2017-11-29T17:31:23.813Z,3.30
2017-11-29T17:34:25.147Z,3.30
2017-11-29T17:37:27.247Z,3.20
2017-11-29T17:40:28.585Z,3.10
2017-11-29T17:43:29.923Z,3.20
2017-11-29T17:46:31.314Z,3.20
2017-11-29T17:49:34.034Z,3.20
2017-11-29T17:52:35.472Z,3.20
2017-11-29T17:55:38.472Z,3.20
2017-11-29T17:58:41.551Z,3.10
2017-11-29T18:01:45.190Z,3.10
2017-11-29T18:04:47.174Z,3.10
2017-11-29T18:07:51.170Z,3.40
2017-11-29T18:10:53.199Z,3.20
2017-11-29T18:13:55.795Z,3.10
2017-11-29T18:16:57.992Z,3.00
2017-11-29T18:20:00.108Z,2.90
2017-11-29T18:23:02.121Z,3.00
2017-11-29T18:26:05.079Z,2.80
2017-11-29T18:29:07.291Z,3.10
2017-11-29T18:32:09.410Z,2.90
2017-11-29T18:35:11.647Z,3.20
2017-11-29T18:38:13.146Z,3.10
2017-11-29T18:41:15.340Z,3.00
2017-11-29T18:44:17.249Z,3.00
2017-11-29T18:47:18.741Z,3.10
2017-11-29T18:50:21.086Z,3.10
2017-11-29T18:53:22.572Z,3.20
2017-11-29T18:56:24.992Z,3.20
2017-11-29T18:59:26.529Z,3.10
2017-11-29T19:02:28.018Z,3.20
2017-11-29T19:05:29.531Z,3.20
2017-11-29T19:08:31.023Z,3.90
2017-11-29T19:11:32.528Z,3.70
2017-11-29T19:14:34.771Z,3.30
2017-11-29T19:17:36.266Z,3.10
2017-11-29T19:20:38.529Z,3.10
2017-11-29T19:23:42.070Z,3.10
2017-11-29T19:26:43.825Z,3.10
2017-11-29T19:29:45.275Z,3.10
2017-11-29T19:32:46.931Z,3.10
2017-11-29T19:35:48.844Z,3.00
2017-11-29T19:38:51.322Z,3.00
2017-11-29T19:41:55.532Z,3.00
2017-11-29T19:44:57.515Z,3.00
2017-11-29T19:48:00.025Z,2.90
2017-11-29T19:51:02.236Z,2.90
2017-11-29T19:54:04.545Z,2.70
2017-11-29T19:57:07.863Z,3.00
2017-11-29T20:00:10.748Z,3.00
2017-11-29T20:03:12.865Z,3.00
2017-11-29T20:06:16.116Z,2.90
2017-11-29T20:09:20.477Z,2.90
2017-11-29T20:12:22.913Z,2.90
2017-11-29T20:15:25.806Z,2.90
2017-11-29T20:18:28.410Z,2.90
2017-11-29T20:21:31.715Z,2.30
2017-11-29T20:24:36.605Z,2.90
2017-11-29T20:27:38.614Z,2.60
2017-11-29T20:30:41.715Z,2.70
2017-11-29T20:33:44.448Z,2.70
2017-11-29T20:36:48.664Z,2.70
2017-11-29T20:39:51.801Z,2.50
2017-11-29T20:42:56.115Z,2.70
2017-11-29T20:45:58.181Z,2.50
2017-11-29T20:49:01.312Z,2.70
2017-11-29T20:52:07.537Z,2.60
2017-11-29T20:55:09.773Z,2.60
2017-11-29T20:58:12.317Z,2.60
2017-11-29T21:01:15.225Z,2.50
2017-11-29T21:04:18.168Z,2.60
2017-11-29T21:07:20.241Z,2.60
2017-11-29T21:10:22.040Z,2.60
2017-11-29T21:13:23.571Z,2.60
2017-11-29T21:16:26.428Z,3.40
2017-11-29T21:19:27.901Z,3.40
2017-11-29T21:22:29.297Z,3.10
2017-11-29T21:25:30.707Z,2.90
2017-11-29T21:28:32.184Z,2.70
2017-11-29T21:31:33.635Z,2.70
2017-11-29T21:34:36.003Z,2.60
2017-11-29T21:37:38.153Z,2.50
2017-11-29T21:40:39.551Z,2.30
2017-11-29T21:43:40.967Z,2.50
2017-11-29T21:46:42.349Z,2.50
2017-11-29T21:49:43.687Z,2.40
2017-11-29T21:52:45.833Z,2.50
2017-11-29T21:55:47.537Z,2.30
2017-11-29T21:58:48.963Z,2.50
2017-11-29T22:01:51.175Z,2.50
2017-11-29T22:04:52.564Z,2.50
2017-11-29T22:07:53.942Z,2.40
2017-11-29T22:10:56.111Z,2.40
2017-11-29T22:13:57.606Z,2.40
2017-11-29T22:16:59.039Z,2.30
2017-11-29T22:20:01.186Z,2.30
2017-11-29T22:23:02.563Z,2.30
2017-11-29T22:26:04.738Z,2.30
2017-11-29T22:29:06.207Z,2.20
2017-11-29T22:32:07.634Z,2.30
2017-11-29T22:35:09.795Z,2.20
2017-11-29T22:38:11.255Z,2.20
2017-11-29T22:41:12.717Z,2.20
2017-11-29T22:44:14.154Z,2.20
2017-11-29T22:47:15.593Z,2.30
2017-11-29T22:50:17.018Z,2.20
2017-11-29T22:53:18.418Z,2.40
2017-11-29T22:56:19.899Z,2.20
2017-11-29T22:59:21.334Z,2.20
2017-11-29T23:02:22.786Z,2.10
2017-11-29T23:05:24.162Z,2.10
2017-11-29T23:08:25.813Z,1.90
2017-11-29T23:11:28.127Z,1.90
2017-11-29T23:14:29.610Z,2.00
2017-11-29T23:17:31.218Z,1.90
2017-11-29T23:20:33.350Z,2.10
2017-11-29T23:23:34.792Z,2.00
2017-11-29T23:26:36.199Z,1.90
2017-11-29T23:29:38.362Z,2.10
2017-11-29T23:32:39.879Z,1.90
2017-11-29T23:35:41.311Z,2.10
2017-11-29T23:38:42.704Z,2.10
2017-11-29T23:41:44.079Z,2.00
2017-11-29T23:44:46.210Z,2.00
2017-11-29T23:47:47.629Z,1.70
2017-11-29T23:50:49.014Z,2.00
2017-11-29T23:53:50.458Z,2.00
2017-11-29T23:56:51.922Z,1.90
2017-11-29T23:59:54.054Z,2.10
